• Join FlightAware (Why Join?)
  • Login
  • US Flag 
08:20PM EDT


 

Airport Tracker/Info


-or-


 

Live Flight TrackerFlight Track Log ✈ LYM134 ✈ 01-Mar-2014 ✈ KDEN - KPUB

Flight Track Log - Related Links

Times and Time Zones

All times are in EST time to prevent confusion due to time zone crossing. See the LYM134 flight status page for this flight to view local times or setup timezone preferences in your user account.

Time Position Orientation Groundspeed Altitude Reporting Facility
EST Latitude Longitude Course Direction KTS MPH feet Rate Location/Type
09:49AM 39.9167 -104.7167 163° South 200 230 7,500  Level Denver TRACON
09:50AM 39.9000 -104.7833 252° West 163 188 9,700 1,020 Climbing Denver TRACON
09:52AM 39.8597 -104.8528 233° Southwest 206 237 10,000 120 Climbing Denver Center
09:53AM 39.8186 -104.9172 230° Southwest 230 265 10,000 240 Level Denver Center
09:54AM 39.7636 -104.9778 220° Southwest 245 282 10,500 480 Climbing Denver Center
09:55AM 39.4855 -104.6305 163° South  Level Estimated
09:55AM 39.6983 -104.9711 176° South 235 270 11,000  Level Denver Center
09:56AM 39.6314 -104.9589 172° South 243 280 11,000  Level Denver Center
09:57AM 39.5631 -104.9444 171° South 246 283 11,000 -60 Level Denver Center
09:58AM 39.4961 -104.9286 170° South 243 280 10,900  Descending Denver Center
09:59AM 39.4331 -104.9117 168° South 237 273 11,000  Climbing Denver Center
10:00AM 39.3658 -104.8922 167° South 236 272 10,900 120 Descending Denver Center
10:01AM 39.3075 -104.8708 164° South 236 272 11,300 420 Climbing Denver Center
10:02AM 39.2528 -104.8361 154° Southeast 228 262 11,700 180 Climbing Denver Center
10:02AM 39.2453 -104.8308 151° Southeast 233 268 11,500 120 Descending Denver Center
10:03AM 39.1828 -104.8067 163° South 234 269 11,900 240 Climbing Denver Center
10:04AM 39.1267 -104.7833 162° South 231 266 12,000  Climbing Denver Center
10:05AM 39.0764 -104.7608 161° South 236 272 12,000  Level Denver Center
10:06AM 39.0011 -104.7297 162° South 241 277 12,000  Level Denver Center
10:06AM 39.0003 -104.7292 153° Southeast 240 276 12,000  Level Denver Center
10:07AM 38.9233 -104.7008 164° South 241 277 12,000  Level Denver Center
10:08AM 38.8597 -104.6703 159° South 244 281 12,000  Level Denver Center
10:09AM 38.7989 -104.6397 159° South 245 282 12,000 -480 Level Denver Center
10:10AM 38.7397 -104.6031 154° Southeast 249 287 11,100 -1,140 Descending Denver Center
10:11AM 38.7189 -104.5306 110° East 314 361 10,200 -1,140 Descending Denver Center
10:11AM 38.6922 -104.4997 138° Southeast 298 343 10,000 -180 Descending Denver Center
10:12AM 38.6261 -104.4872 172° South 261 300 10,000  Level Denver Center
10:13AM 38.5653 -104.4956 186° South 251 289 10,100 -120 Climbing Denver Center
10:14AM 38.4989 -104.5286 201° Southwest 235 270 9,800 -660 Descending Denver Center
10:15AM 38.4472 -104.5750 215° Southwest 239 275 8,800 -840 Descending Denver Center
10:16AM 38.4061 -104.6211 221° Southwest 244 281 8,100 -720 Descending Denver Center
10:17AM 38.3567 -104.7133 236° Southwest 247 284 7,400 -600 Descending Denver Center
10:18AM 38.3197 -104.7875 238° Southwest 244 281 7,000 -180 Descending Denver Center
10:20AM 38.2808 -104.7022 120° Southeast 190 219 7,000 -60 Level Denver Center
10:21AM 38.2850 -104.6347 85° East 200 230 6,900 -300 Descending Denver Center
10:22AM 38.2853 -104.5719 90° East 196 226 6,500 -420 Descending Denver Center